C65

Plymouth Municipal Airport

Plymouth, Indiana, USA
METAR KC65 211735Z AUTO 08007KT 4SM BR OVC020 19/19 A2978 RMK A01
Observed Flight Rules
Jun-21 @ 17:35 UTC (30 minutes ago) Marginal Visual Flight Rules
Wind Visibility Clouds Conditions
80° at 7 knots 4 miles
  • Overcast at 2,000' AGL
  • Mist
Temperatures Readings
Current 19°C / 66°F
Dewpoint 19°C / 66°F
Humidity 100%
Altimeter 29.78" Hg
Pressure 1008 hPa
Elevation 244
METAR KC65 211735Z AUTO 08007KT 4SM BR OVC020 19/19 A2978 RMK A01
Observed Flight Rules
Jun-21 @ 17:35 UTC
(30 minutes ago)
MVFR
Wind Visibility
80° at 7 knots 4 miles
Clouds
  • Overcast at 2,000' AGL
Conditions
  • Mist
Temperature Dewpoint
19°C / 66°F 19°C / 66°F
Humidity Altimeter Pressure
100% 29.78" Hg 1008 hPa